createdAt,value
2018-09-13T00:02:19.428Z,97754.00
2018-09-13T00:04:48.621Z,97747.00
2018-09-13T00:07:17.800Z,97744.00
2018-09-13T00:09:47.011Z,97736.00
2018-09-13T00:12:16.208Z,97741.00
2018-09-13T00:14:45.425Z,97743.00
2018-09-13T00:17:14.672Z,97734.00
2018-09-13T00:19:43.857Z,97741.00
2018-09-13T00:22:13.037Z,97736.00
2018-09-13T00:24:42.281Z,97742.00
2018-09-13T00:27:11.465Z,97751.00
2018-09-13T00:29:40.666Z,97749.00
2018-09-13T00:32:09.831Z,97752.00
2018-09-13T00:34:39.039Z,97742.00
2018-09-13T00:37:08.322Z,97737.00
2018-09-13T00:39:37.513Z,97730.00
2018-09-13T00:42:06.718Z,97735.00
2018-09-13T00:44:35.928Z,97727.00
2018-09-13T00:47:09.248Z,97734.00
2018-09-13T00:49:38.457Z,97748.00
2018-09-13T00:52:07.780Z,97735.00
2018-09-13T00:54:37.004Z,97736.00
2018-09-13T00:57:06.190Z,97730.00
2018-09-13T00:59:35.431Z,97723.00
2018-09-13T01:02:04.612Z,97722.00
2018-09-13T01:04:33.949Z,97722.00
2018-09-13T01:07:03.120Z,97724.00
2018-09-13T01:09:32.304Z,97722.00
2018-09-13T01:12:01.525Z,97724.00
2018-09-13T01:14:30.736Z,97733.00
2018-09-13T01:16:59.905Z,97725.00
2018-09-13T01:19:29.109Z,97710.00
2018-09-13T01:21:58.300Z,97705.00
2018-09-13T01:24:27.484Z,97705.00
2018-09-13T01:26:56.676Z,97718.00
2018-09-13T01:29:25.840Z,97721.00
2018-09-13T01:31:55.056Z,97722.00
2018-09-13T01:34:24.240Z,97712.00
2018-09-13T01:36:53.481Z,97713.00
2018-09-13T01:39:22.686Z,97712.00
2018-09-13T01:41:51.899Z,97702.00
2018-09-13T01:44:21.284Z,97689.00
2018-09-13T01:46:50.580Z,97705.00
2018-09-13T01:49:19.757Z,97708.00
2018-09-13T01:51:48.956Z,97714.00
2018-09-13T01:54:18.140Z,97707.00
2018-09-13T01:56:47.347Z,97705.00
2018-09-13T01:59:16.521Z,97701.00
2018-09-13T02:01:45.720Z,97697.00
2018-09-13T02:04:14.896Z,97697.00
2018-09-13T02:06:44.098Z,97704.00
2018-09-13T02:09:13.280Z,97699.00
2018-09-13T02:11:42.525Z,97685.00
2018-09-13T02:14:11.777Z,97691.00
2018-09-13T02:16:40.991Z,97696.00
2018-09-13T02:19:10.156Z,97684.00
2018-09-13T02:21:39.381Z,97686.00
2018-09-13T02:24:08.556Z,97691.00
2018-09-13T02:26:37.753Z,97692.00
2018-09-13T02:29:06.974Z,97684.00
2018-09-13T02:31:36.200Z,97688.00
2018-09-13T02:34:05.432Z,97692.00
2018-09-13T02:36:34.663Z,97692.00
2018-09-13T02:39:04.642Z,97695.00
2018-09-13T02:41:33.849Z,97697.00
2018-09-13T02:44:03.248Z,97695.00
2018-09-13T02:46:32.456Z,97704.00
2018-09-13T02:49:01.709Z,97688.00
2018-09-13T02:51:30.868Z,97697.00
2018-09-13T02:54:00.196Z,97692.00
2018-09-13T02:56:29.625Z,97679.00
2018-09-13T02:58:58.808Z,97685.00
2018-09-13T03:01:28.035Z,97688.00
2018-09-13T03:03:57.213Z,97689.00
2018-09-13T03:06:26.537Z,97684.00
2018-09-13T03:08:55.716Z,97678.00
2018-09-13T03:11:24.926Z,97669.00
2018-09-13T03:13:54.092Z,97670.00
2018-09-13T03:16:23.292Z,97671.00
2018-09-13T03:18:52.469Z,97672.00
2018-09-13T03:21:21.680Z,97684.00
2018-09-13T03:23:50.861Z,97697.00
2018-09-13T03:26:20.045Z,97706.00
2018-09-13T03:28:49.502Z,97709.00
2018-09-13T03:31:18.707Z,97719.00
2018-09-13T03:33:47.884Z,97733.00
2018-09-13T03:36:17.090Z,97710.00
2018-09-13T03:38:46.288Z,97716.00
2018-09-13T03:41:15.479Z,97712.00
2018-09-13T03:43:44.684Z,97715.00
2018-09-13T03:46:13.923Z,97704.00
2018-09-13T03:48:43.105Z,97691.00
2018-09-13T03:51:12.288Z,97693.00
2018-09-13T03:53:41.461Z,97694.00
2018-09-13T03:56:10.668Z,97690.00
2018-09-13T03:58:39.843Z,97683.00
2018-09-13T04:01:09.036Z,97671.00
2018-09-13T04:03:38.217Z,97675.00
2018-09-13T04:06:07.443Z,97678.00
2018-09-13T04:08:36.631Z,97667.00
2018-09-13T04:11:05.884Z,97663.00
2018-09-13T04:13:35.061Z,97669.00
2018-09-13T04:16:04.257Z,97661.00
2018-09-13T04:18:33.429Z,97662.00
2018-09-13T04:21:02.607Z,97657.00
2018-09-13T04:23:31.796Z,97660.00
2018-09-13T04:26:01.203Z,97663.00
2018-09-13T04:28:30.392Z,97655.00
2018-09-13T04:30:59.560Z,97654.00
2018-09-13T04:33:28.748Z,97657.00
2018-09-13T04:35:58.005Z,97669.00
2018-09-13T04:38:27.276Z,97670.00
2018-09-13T04:40:56.448Z,97656.00
2018-09-13T04:43:25.676Z,97665.00
2018-09-13T04:45:54.854Z,97668.00
2018-09-13T04:48:24.056Z,97664.00
2018-09-13T04:50:53.240Z,97669.00
2018-09-13T04:53:22.429Z,97665.00
2018-09-13T04:55:51.620Z,97670.00
2018-09-13T04:58:20.889Z,97662.00
2018-09-13T05:00:50.499Z,97667.00
2018-09-13T05:03:19.698Z,97669.00
2018-09-13T05:05:48.863Z,97659.00
2018-09-13T05:08:18.060Z,97641.00
2018-09-13T05:10:47.268Z,97649.00
2018-09-13T05:13:16.468Z,97636.00
2018-09-13T05:15:45.655Z,97639.00
2018-09-13T05:18:14.861Z,97652.00
2018-09-13T05:20:44.040Z,97644.00
2018-09-13T05:23:13.236Z,97635.00
2018-09-13T05:25:42.412Z,97635.00
2018-09-13T05:28:11.597Z,97642.00
2018-09-13T05:30:40.803Z,97643.00
2018-09-13T05:33:10.014Z,97634.00
2018-09-13T05:35:39.205Z,97632.00
2018-09-13T05:38:08.493Z,97629.00
2018-09-13T05:40:37.704Z,97638.00
2018-09-13T05:43:06.956Z,97640.00
2018-09-13T05:45:36.139Z,97626.00
2018-09-13T05:48:05.385Z,97629.00
2018-09-13T05:50:34.591Z,97631.00
2018-09-13T05:53:03.783Z,97623.00
2018-09-13T05:55:32.969Z,97617.00
2018-09-13T05:58:02.170Z,97610.00
2018-09-13T06:00:31.351Z,97612.00
2018-09-13T06:03:00.548Z,97618.00
2018-09-13T06:05:29.719Z,97622.00
2018-09-13T06:07:58.946Z,97617.00
2018-09-13T06:10:28.169Z,97617.00
2018-09-13T06:12:57.373Z,97623.00
2018-09-13T06:15:26.598Z,97621.00
2018-09-13T06:17:55.824Z,97631.00
2018-09-13T06:20:25.030Z,97622.00
2018-09-13T06:22:54.260Z,97610.00
2018-09-13T06:25:23.661Z,97633.00
2018-09-13T06:27:52.878Z,97632.00
2018-09-13T06:30:22.096Z,97626.00
2018-09-13T06:32:51.299Z,97633.00
2018-09-13T06:35:20.488Z,97635.00
2018-09-13T06:37:49.751Z,97637.00
2018-09-13T06:40:18.920Z,97640.00
2018-09-13T06:42:48.164Z,97628.00
2018-09-13T06:45:17.348Z,97625.00
2018-09-13T06:47:46.621Z,97636.00
2018-09-13T06:50:15.856Z,97621.00
2018-09-13T06:52:45.057Z,97618.00
2018-09-13T06:55:14.240Z,97612.00
2018-09-13T06:57:43.423Z,97612.00
2018-09-13T07:00:12.621Z,97607.00
2018-09-13T07:02:41.863Z,97612.00
2018-09-13T07:05:11.039Z,97619.00
2018-09-13T07:07:40.257Z,97613.00
2018-09-13T07:10:09.468Z,97620.00
2018-09-13T07:12:38.676Z,97615.00
2018-09-13T07:15:07.848Z,97622.00
2018-09-13T07:17:37.060Z,97611.00
2018-09-13T07:20:06.708Z,97615.00
2018-09-13T07:22:35.957Z,97610.00
2018-09-13T07:25:05.419Z,97626.00
2018-09-13T07:27:34.648Z,97614.00
2018-09-13T07:30:04.140Z,97596.00
2018-09-13T07:32:33.352Z,97609.00
2018-09-13T07:35:02.596Z,97611.00
2018-09-13T07:37:31.847Z,97599.00
2018-09-13T07:40:01.026Z,97604.00
2018-09-13T07:42:30.289Z,97612.00
2018-09-13T07:44:59.452Z,97611.00
2018-09-13T07:47:28.636Z,97619.00
2018-09-13T07:49:57.926Z,97622.00
2018-09-13T07:52:27.061Z,97631.00
2018-09-13T07:54:56.289Z,97617.00
2018-09-13T07:57:25.557Z,97615.00
2018-09-13T07:59:54.756Z,97615.00
2018-09-13T08:02:23.960Z,97627.00
2018-09-13T08:04:53.200Z,97628.00
2018-09-13T08:07:22.388Z,97619.00
2018-09-13T08:09:51.600Z,97618.00
2018-09-13T08:12:20.806Z,97625.00
2018-09-13T08:14:50.012Z,97621.00
2018-09-13T08:17:19.184Z,97614.00
2018-09-13T08:19:48.371Z,97620.00
2018-09-13T08:22:17.573Z,97629.00
2018-09-13T08:24:46.777Z,97629.00
2018-09-13T08:27:16.033Z,97630.00
2018-09-13T08:29:45.200Z,97627.00
2018-09-13T08:32:20.972Z,97639.00
2018-09-13T08:34:50.227Z,97630.00
2018-09-13T08:37:19.385Z,97628.00
2018-09-13T08:39:48.595Z,97628.00
2018-09-13T08:42:17.816Z,97630.00
2018-09-13T08:44:47.013Z,97624.00
2018-09-13T08:47:16.209Z,97635.00
2018-09-13T08:49:45.414Z,97630.00
2018-09-13T08:52:14.648Z,97616.00
2018-09-13T08:54:43.829Z,97630.00
2018-09-13T08:57:13.016Z,97640.00
2018-09-13T08:59:42.236Z,97642.00
2018-09-13T09:02:11.420Z,97649.00
2018-09-13T09:04:40.644Z,97642.00
2018-09-13T09:07:09.844Z,97655.00
2018-09-13T09:09:39.056Z,97650.00
2018-09-13T09:12:08.283Z,97656.00
2018-09-13T09:14:37.492Z,97645.00
2018-09-13T09:17:06.820Z,97649.00
2018-09-13T09:19:36.100Z,97645.00
2018-09-13T09:22:05.616Z,97660.00
2018-09-13T09:24:34.828Z,97653.00
2018-09-13T09:27:04.232Z,97659.00
2018-09-13T09:29:33.446Z,97652.00
2018-09-13T09:32:02.656Z,97658.00
2018-09-13T09:34:31.889Z,97656.00
2018-09-13T09:37:01.127Z,97647.00
2018-09-13T09:39:30.340Z,97642.00
2018-09-13T09:41:59.529Z,97654.00
2018-09-13T09:44:28.752Z,97639.00
2018-09-13T09:46:58.024Z,97644.00
2018-09-13T09:49:27.233Z,97637.00
2018-09-13T09:51:56.439Z,97633.00
2018-09-13T09:54:25.652Z,97620.00
2018-09-13T09:56:54.864Z,97634.00
2018-09-13T09:59:24.089Z,97639.00
2018-09-13T10:01:58.808Z,97630.00
2018-09-13T10:04:28.072Z,97636.00
2018-09-13T10:06:57.791Z,97640.00
2018-09-13T10:09:27.037Z,97636.00
2018-09-13T10:11:56.250Z,97632.00
2018-09-13T10:14:25.460Z,97626.00
2018-09-13T10:17:00.038Z,97630.00
2018-09-13T10:19:34.529Z,97631.00
2018-09-13T10:22:09.039Z,97640.00
2018-09-13T10:24:43.599Z,97644.00
2018-09-13T10:27:18.033Z,97632.00
2018-09-13T10:29:52.524Z,97640.00
2018-09-13T10:32:27.105Z,97631.00
2018-09-13T10:35:01.731Z,97633.00
2018-09-13T10:37:36.537Z,97628.00
2018-09-13T10:40:11.323Z,97628.00
2018-09-13T10:42:45.872Z,97625.00
2018-09-13T10:45:20.504Z,97627.00
2018-09-13T10:47:56.928Z,97629.00
2018-09-13T10:50:24.280Z,97641.00
2018-09-13T10:52:57.663Z,97632.00
2018-09-13T10:55:27.797Z,97635.00
2018-09-13T10:57:56.953Z,97620.00
2018-09-13T11:00:26.167Z,97626.00
2018-09-13T11:02:56.264Z,97629.00
2018-09-13T11:05:25.476Z,97621.00
2018-09-13T11:07:54.676Z,97627.00
2018-09-13T11:10:23.923Z,97617.00
2018-09-13T11:13:00.300Z,97627.00
2018-09-13T11:15:35.686Z,97624.00
2018-09-13T11:18:06.297Z,97618.00
2018-09-13T11:20:35.751Z,97625.00
2018-09-13T11:23:04.978Z,97617.00
2018-09-13T11:25:34.250Z,97606.00
2018-09-13T11:28:03.440Z,97605.00
2018-09-13T11:30:32.677Z,97611.00
2018-09-13T11:33:01.892Z,97612.00
2018-09-13T11:35:31.120Z,97613.00
2018-09-13T11:38:00.321Z,97606.00
2018-09-13T11:40:29.558Z,97610.00
2018-09-13T11:42:58.749Z,97598.00
2018-09-13T11:45:27.988Z,97597.00
2018-09-13T11:47:57.192Z,97604.00
2018-09-13T11:50:26.401Z,97609.00
2018-09-13T11:52:55.584Z,97613.00
2018-09-13T11:55:24.794Z,97613.00
2018-09-13T11:57:53.984Z,97616.00
2018-09-13T12:00:23.212Z,97624.00
2018-09-13T12:02:52.397Z,97616.00
2018-09-13T12:05:21.596Z,97624.00
2018-09-13T12:07:50.866Z,97609.00
2018-09-13T12:10:20.120Z,97623.00
2018-09-13T12:12:49.329Z,97611.00
2018-09-13T12:15:18.565Z,97612.00
2018-09-13T12:17:47.764Z,97605.00
2018-09-13T12:20:17.029Z,97610.00
2018-09-13T12:22:46.244Z,97613.00
2018-09-13T12:25:15.469Z,97613.00
2018-09-13T12:27:44.652Z,97620.00
2018-09-13T12:30:13.887Z,97617.00
2018-09-13T12:32:43.104Z,97614.00
2018-09-13T12:35:12.328Z,97622.00
2018-09-13T12:37:41.513Z,97617.00
2018-09-13T12:40:11.099Z,97607.00
2018-09-13T12:42:40.404Z,97602.00
2018-09-13T12:45:10.420Z,97600.00
2018-09-13T12:47:39.827Z,97603.00
2018-09-13T12:50:08.929Z,97603.00
2018-09-13T12:52:38.129Z,97597.00
2018-09-13T12:55:07.428Z,97597.00
2018-09-13T12:57:36.704Z,97598.00
2018-09-13T13:00:06.212Z,97605.00
2018-09-13T13:02:35.414Z,97617.00
2018-09-13T13:05:04.825Z,97635.00
2018-09-13T13:07:34.040Z,97635.00
2018-09-13T13:10:03.304Z,97623.00
2018-09-13T13:12:32.567Z,97621.00
2018-09-13T13:15:01.755Z,97625.00
2018-09-13T13:17:30.973Z,97622.00
2018-09-13T13:20:00.176Z,97615.00
2018-09-13T13:22:29.372Z,97615.00
2018-09-13T13:24:58.591Z,97625.00
2018-09-13T13:27:27.842Z,97615.00
2018-09-13T13:29:57.025Z,97611.00
2018-09-13T13:32:26.312Z,97611.00
2018-09-13T13:34:55.529Z,97605.00
2018-09-13T13:37:24.754Z,97603.00
2018-09-13T13:39:53.981Z,97607.00
2018-09-13T13:42:23.184Z,97613.00
2018-09-13T13:44:52.366Z,97610.00
2018-09-13T13:47:21.576Z,97608.00
2018-09-13T13:49:50.761Z,97604.00
2018-09-13T13:52:19.965Z,97610.00
2018-09-13T13:54:49.148Z,97607.00
2018-09-13T13:57:18.372Z,97607.00
2018-09-13T13:59:47.623Z,97607.00
2018-09-13T14:02:16.811Z,97598.00
2018-09-13T14:04:46.033Z,97599.00
2018-09-13T14:07:15.300Z,97602.00
2018-09-13T14:09:44.510Z,97608.00
2018-09-13T14:12:13.745Z,97605.00
2018-09-13T14:14:42.964Z,97600.00
2018-09-13T14:17:12.301Z,97609.00
2018-09-13T14:19:41.549Z,97597.00
2018-09-13T14:22:10.803Z,97606.00
2018-09-13T14:24:40.041Z,97602.00
2018-09-13T14:27:09.407Z,97600.00
2018-09-13T14:29:38.658Z,97598.00
2018-09-13T14:32:07.976Z,97606.00
2018-09-13T14:34:37.373Z,97596.00
2018-09-13T14:50:49.206Z,97612.00
2018-09-13T14:53:18.409Z,97610.00
2018-09-13T14:55:47.630Z,97599.00
2018-09-13T14:58:16.848Z,97589.00
2018-09-13T15:00:46.027Z,97589.00
2018-09-13T15:03:16.049Z,97593.00
2018-09-13T15:05:45.310Z,97593.00
2018-09-13T15:08:14.527Z,97593.00
2018-09-13T15:10:44.584Z,97595.00
2018-09-13T15:13:13.796Z,97592.00
2018-09-13T15:15:43.001Z,97590.00
2018-09-13T15:18:12.201Z,97591.00
2018-09-13T15:20:41.404Z,97590.00
2018-09-13T15:23:10.672Z,97583.00
2018-09-13T15:25:39.892Z,97588.00
2018-09-13T15:28:09.090Z,97581.00
2018-09-13T15:30:38.288Z,97592.00
2018-09-13T15:33:07.489Z,97588.00
2018-09-13T15:35:36.680Z,97584.00
2018-09-13T15:38:05.984Z,97578.00
2018-09-13T15:40:35.200Z,97570.00
2018-09-13T15:43:04.422Z,97571.00
2018-09-13T15:45:33.636Z,97591.00
2018-09-13T15:48:05.893Z,97592.00
2018-09-13T15:50:35.111Z,97486.00
2018-09-13T15:53:04.319Z,97588.00
2018-09-13T15:55:33.488Z,97585.00
2018-09-13T15:58:02.701Z,97576.00
2018-09-13T16:00:31.933Z,97578.00
2018-09-13T16:03:01.162Z,97571.00
2018-09-13T16:05:30.354Z,97569.00
2018-09-13T16:07:59.603Z,97572.00
2018-09-13T16:10:28.911Z,97573.00
2018-09-13T16:12:58.265Z,97575.00
2018-09-13T16:15:27.328Z,97568.00
2018-09-13T16:17:56.531Z,97580.00
2018-09-13T16:20:26.230Z,97588.00
2018-09-13T16:22:54.939Z,97579.00
2018-09-13T16:25:24.123Z,97562.00
2018-09-13T16:27:53.325Z,97567.00
2018-09-13T16:30:22.524Z,97573.00
2018-09-13T16:32:51.788Z,97572.00
2018-09-13T16:35:20.983Z,97585.00
2018-09-13T16:37:55.544Z,97582.00
2018-09-13T16:41:29.931Z,97591.00
2018-09-13T16:44:00.920Z,97580.00
2018-09-13T16:46:37.308Z,97588.00
2018-09-13T16:49:07.156Z,97582.00
2018-09-13T16:51:36.812Z,97585.00
2018-09-13T16:54:06.240Z,97584.00
2018-09-13T16:56:35.425Z,97585.00
2018-09-13T16:59:04.626Z,97580.00
2018-09-13T17:01:33.796Z,97577.00
2018-09-13T17:04:02.994Z,97575.00
2018-09-13T17:06:32.171Z,97575.00
2018-09-13T17:09:01.381Z,97571.00
2018-09-13T17:11:30.576Z,97575.00
2018-09-13T17:13:59.768Z,97577.00
2018-09-13T17:16:28.956Z,97576.00
2018-09-13T17:18:58.152Z,97587.00
2018-09-13T17:21:27.364Z,97582.00
2018-09-13T17:23:56.556Z,97581.00
2018-09-13T17:26:25.741Z,97581.00
2018-09-13T17:28:54.960Z,97593.00
2018-09-13T17:31:24.133Z,97599.00
2018-09-13T17:33:53.460Z,97596.00
2018-09-13T17:36:22.574Z,97602.00
2018-09-13T17:38:51.776Z,97598.00
2018-09-13T17:41:20.945Z,97601.00
2018-09-13T17:43:50.551Z,97600.00
2018-09-13T17:46:19.752Z,97602.00
2018-09-13T17:48:48.948Z,97607.00
2018-09-13T17:51:18.132Z,97605.00
2018-09-13T17:53:47.328Z,97604.00
2018-09-13T17:56:16.692Z,97598.00
2018-09-13T17:58:45.892Z,97597.00
2018-09-13T18:01:15.122Z,97604.00
2018-09-13T18:03:44.677Z,97607.00
2018-09-13T18:06:13.845Z,97609.00
2018-09-13T18:08:43.052Z,97600.00
2018-09-13T18:11:12.358Z,97606.00
2018-09-13T18:13:41.488Z,97599.00
2018-09-13T18:16:10.693Z,97601.00
2018-09-13T18:18:39.946Z,97594.00
2018-09-13T18:21:09.112Z,97599.00
2018-09-13T18:23:38.319Z,97596.00
2018-09-13T18:26:07.512Z,97590.00
2018-09-13T18:28:36.716Z,97599.00
2018-09-13T18:31:05.908Z,97593.00
2018-09-13T18:33:35.080Z,97595.00
2018-09-13T18:36:04.299Z,97603.00
2018-09-13T18:38:33.481Z,97609.00
2018-09-13T18:41:02.676Z,97617.00
2018-09-13T18:43:31.852Z,97612.00
2018-09-13T18:46:01.053Z,97617.00
2018-09-13T18:48:30.245Z,97623.00
2018-09-13T18:50:59.532Z,97621.00
2018-09-13T18:53:28.704Z,97616.00
2018-09-13T18:55:57.916Z,97616.00
2018-09-13T18:58:27.153Z,97613.00
2018-09-13T19:00:56.553Z,97622.00
2018-09-13T19:03:28.424Z,97620.00
2018-09-13T19:05:57.633Z,97622.00
2018-09-13T19:08:26.901Z,97618.00
2018-09-13T19:10:56.167Z,97621.00
2018-09-13T19:13:25.373Z,97622.00
2018-09-13T19:15:54.626Z,97618.00
2018-09-13T19:18:23.772Z,97619.00
2018-09-13T19:20:52.968Z,97616.00
2018-09-13T19:23:22.147Z,97615.00
2018-09-13T19:25:51.362Z,97613.00
2018-09-13T19:28:20.548Z,97614.00
2018-09-13T19:30:49.783Z,97617.00
2018-09-13T19:33:18.949Z,97612.00
2018-09-13T19:35:48.145Z,97617.00
2018-09-13T19:38:17.320Z,97613.00
2018-09-13T19:40:46.569Z,97612.00
2018-09-13T19:43:15.765Z,97617.00
2018-09-13T19:45:44.964Z,97618.00
2018-09-13T19:48:14.132Z,97618.00
2018-09-13T19:50:43.415Z,97623.00
2018-09-13T19:53:12.518Z,97623.00
2018-09-13T19:55:41.708Z,97623.00
2018-09-13T19:58:10.884Z,97635.00
2018-09-13T20:00:40.085Z,97630.00
2018-09-13T20:03:09.316Z,97635.00
2018-09-13T20:05:38.489Z,97635.00
2018-09-13T20:08:07.672Z,97641.00
2018-09-13T20:10:36.884Z,97637.00
2018-09-13T20:13:06.066Z,97634.00
2018-09-13T20:15:35.266Z,97639.00
2018-09-13T20:18:04.451Z,97650.00
2018-09-13T20:20:33.668Z,97651.00
2018-09-13T20:23:02.868Z,97651.00
2018-09-13T20:25:32.116Z,97653.00
2018-09-13T20:28:01.300Z,97645.00
2018-09-13T20:30:30.520Z,97649.00
2018-09-13T20:32:59.721Z,97647.00
2018-09-13T20:35:28.983Z,97652.00
2018-09-13T20:37:58.180Z,97645.00
2018-09-13T20:40:27.384Z,97635.00
2018-09-13T20:42:56.557Z,97630.00
2018-09-13T20:45:25.777Z,97639.00
2018-09-13T20:47:54.965Z,97645.00
2018-09-13T20:50:24.184Z,97641.00
2018-09-13T20:52:53.368Z,97650.00
2018-09-13T20:55:22.572Z,97651.00
2018-09-13T20:57:51.741Z,97655.00
2018-09-13T21:00:21.016Z,97659.00
2018-09-13T21:02:50.804Z,97666.00
2018-09-13T21:05:20.457Z,97671.00
2018-09-13T21:07:49.659Z,97662.00
2018-09-13T21:10:18.880Z,97661.00
2018-09-13T21:12:48.064Z,97665.00
2018-09-13T21:15:17.252Z,97670.00
2018-09-13T21:17:46.765Z,97665.00
2018-09-13T21:20:15.957Z,97666.00
2018-09-13T21:22:45.132Z,97676.00
2018-09-13T21:25:14.359Z,97668.00
2018-09-13T21:27:43.545Z,97670.00
2018-09-13T21:30:12.768Z,97664.00
2018-09-13T21:32:41.942Z,97667.00
2018-09-13T21:35:11.205Z,97665.00
2018-09-13T21:37:40.380Z,97668.00
2018-09-13T21:40:09.612Z,97665.00
2018-09-13T21:42:39.349Z,97658.00
2018-09-13T21:45:08.598Z,97656.00
2018-09-13T21:47:37.903Z,97655.00
2018-09-13T21:50:07.318Z,97662.00
2018-09-13T21:52:36.517Z,97651.00
2018-09-13T21:55:05.732Z,97654.00
2018-09-13T21:57:34.961Z,97655.00
2018-09-13T22:00:05.210Z,97653.00
2018-09-13T22:02:34.444Z,97656.00
2018-09-13T22:05:03.633Z,97664.00
2018-09-13T22:07:32.832Z,97666.00
2018-09-13T22:10:02.029Z,97669.00
2018-09-13T22:12:31.273Z,97668.00
2018-09-13T22:15:00.461Z,97667.00
2018-09-13T22:17:29.672Z,97667.00
2018-09-13T22:19:58.920Z,97666.00
2018-09-13T22:22:28.529Z,97666.00
2018-09-13T22:24:57.714Z,97670.00
2018-09-13T22:27:26.932Z,97674.00
2018-09-13T22:29:56.116Z,97669.00
2018-09-13T22:32:25.454Z,97670.00
2018-09-13T22:34:54.628Z,97671.00
2018-09-13T22:37:23.837Z,97672.00
2018-09-13T22:39:53.009Z,97669.00
2018-09-13T22:42:22.214Z,97672.00
2018-09-13T22:45:01.145Z,97678.00
2018-09-13T22:47:31.556Z,97670.00
2018-09-13T22:50:00.789Z,97674.00
2018-09-13T22:52:29.992Z,97674.00
2018-09-13T22:54:59.164Z,97671.00
2018-09-13T22:57:28.397Z,97644.00
2018-09-13T22:59:57.591Z,97668.00
2018-09-13T23:02:26.819Z,97671.00
2018-09-13T23:04:56.009Z,97673.00
2018-09-13T23:07:25.229Z,97670.00
2018-09-13T23:09:54.414Z,97667.00
2018-09-13T23:12:23.700Z,97677.00
2018-09-13T23:14:52.880Z,97671.00
2018-09-13T23:17:22.135Z,97675.00
2018-09-13T23:19:51.281Z,97673.00
2018-09-13T23:22:20.476Z,97671.00
2018-09-13T23:24:49.942Z,97675.00
2018-09-13T23:27:19.137Z,97671.00
2018-09-13T23:29:48.344Z,97678.00
2018-09-13T23:32:17.544Z,97670.00
2018-09-13T23:34:46.765Z,97676.00
2018-09-13T23:37:15.972Z,97667.00
2018-09-13T23:39:45.610Z,97674.00
2018-09-13T23:42:14.628Z,97668.00
2018-09-13T23:44:43.808Z,97671.00
2018-09-13T23:47:13.017Z,97677.00
2018-09-13T23:49:42.640Z,97671.00
2018-09-13T23:52:11.840Z,97682.00
2018-09-13T23:54:41.046Z,97682.00
2018-09-13T23:57:10.240Z,97685.00
2018-09-13T23:59:39.433Z,97679.00
